National Weather Service Raw Text Product

Displaying AFOS PIL: TAFMCW Received: 2017-08-13 05:20 UTC


886 
FTUS43 KDMX 130520
TAFMCW
TAF
KMCW 130520Z 1306/1406 VRB03KT P6SM BKN200
     FM131500 16007KT P6SM BKN100
     FM140000 13008KT P6SM VCTS BKN070CB=